Airfield :
LOGIN :

Register | Disclaimer

   EN    FR    IT 

 










Legend :    VFR   Marginal VFR   IFR   Intensive IFR   Very Intensive IFR
Visi :
Ceiling :
>= 8 km
>= 3000ft
5 to 8 km
1000 to 3000 ft
1500m to 5 km
500 to 1000 ft
800 to 1500m
200 to 500 ft
< 800m
< 200 ft
Symbols :   Thunderstorms  Fog  Heavy snow  Heavy precipitations  Wind > 20 kt
SIGMETs :     Misc.  Thunderstorms  Icing  Turbulence  Mountain Waves  Volcanic Ashes






- Airport Elevation : 512 ft
- IATA code : URO


LFOP - Rouen Vallée de Seine

CURRENT METAR :
  • 280500Z AUTO 16005KT CAVOK 08/07 Q1022

EXPIRED METARs :
  • 280430Z AUTO 15004KT CAVOK 08/07 Q1022
  • 280400Z AUTO 17003KT CAVOK 08/08 Q1022
  • 280330Z AUTO 16006KT CAVOK 08/08 Q1022
  • 280300Z AUTO 17005KT CAVOK 08/07 Q1022
  • 280230Z AUTO 16005KT 9999 FEW001 08/07 Q1023

TAF TAF LFOP
Valid from the 27 at 18:00 until the 28 at 18:00 UTC


271700Z 2718/2818 26010KT 9999 SCT040
BECMG 2718/2721 20006KT
ATIS : +33 2 35 80 80 34
Met : +33 2 32 86 52 80



MET'MAP, your aeronautical weather chart ! - Copyright ORBIFLY December 2007 - Disclaimer

ORBIFLY MET'MAP TEAM :

Programming & Development : Alexandra Zaïnal
Concept & original design : Baudouin d'Aumeries
Assistance for programming : Marc-Olivier Méhu
Technical & hardware support : Manuel Goepfert

Contact : metmap@orbifly.com




SOURCES & CREDITS :

   NOAA